Time;durP1;ratioP1;P1;durP2;ratioP2;P2;SDS_P1;SDS_P2;PMS_P1;PMS_P2;Temp;Humidity;BMP_temperature;BMP_pressure;BME280_temperature;BME280_humidity;BME280_pressure;Samples;Min_cycle;Max_cycle;Signal;HPM_P1;HPM_P2
2024/01/03 00:01:37;;;;;;;11.23;10.93;;;10.60;99.90;;;;;;5037588;28;20468;-71
2024/01/03 00:04:05;;;;;;;11.10;10.80;;;10.70;99.90;;;;;;5035798;28;20728;-70
2024/01/03 00:06:34;;;;;;;11.37;11.07;;;10.80;99.90;;;;;;5043020;28;20471;-70
2024/01/03 00:09:02;;;;;;;11.33;11.03;;;10.90;99.90;;;;;;5039352;28;21440;-71
2024/01/03 00:11:31;;;;;;;11.40;11.10;;;10.90;99.90;;;;;;5039398;28;20530;-71
2024/01/03 00:14:08;;;;;;;11.00;10.70;;;10.90;99.90;;;;;;5041200;28;20448;-70
2024/01/03 00:16:38;;;;;;;10.87;10.57;;;10.80;99.90;;;;;;5036077;28;20460;-70
2024/01/03 00:19:06;;;;;;;11.40;11.10;;;10.90;99.90;;;;;;5031880;28;21037;-71
2024/01/03 00:21:34;;;;;;;10.40;10.20;;;10.90;99.90;;;;;;5039195;28;20461;-70
2024/01/03 00:24:05;;;;;;;10.93;10.63;;;10.90;99.90;;;;;;5046167;28;20456;-70
2024/01/03 00:26:34;;;;;;;11.00;10.70;;;10.80;99.90;;;;;;5041175;28;20469;-69
2024/01/03 00:29:04;;;;;;;11.00;10.70;;;10.90;99.90;;;;;;5032182;28;20532;-71
2024/01/03 00:31:42;;;;;;;11.23;10.93;;;10.90;99.90;;;;;;5043900;28;20993;-71
2024/01/03 00:34:29;;;;;;;11.50;11.20;;;10.90;99.90;;;;;;5035564;28;20521;-70
2024/01/03 00:36:56;;;;;;;11.50;11.20;;;10.90;99.90;;;;;;5038156;28;20452;-68
2024/01/03 00:39:26;;;;;;;11.33;11.03;;;10.90;99.90;;;;;;5039959;28;20516;-71
2024/01/03 00:41:53;;;;;;;11.50;11.20;;;10.90;99.90;;;;;;5040085;28;20966;-70
2024/01/03 00:44:20;;;;;;;12.10;11.80;;;10.90;99.90;;;;;;5038213;28;20463;-71
2024/01/03 00:46:49;;;;;;;11.80;11.50;;;10.90;99.90;;;;;;5031787;28;20520;-70
2024/01/03 00:49:17;;;;;;;11.43;11.13;;;10.80;99.90;;;;;;5042999;28;20452;-70
2024/01/03 00:51:48;;;;;;;12.20;11.90;;;10.80;99.90;;;;;;5043668;28;20516;-69
2024/01/03 00:54:16;;;;;;;11.53;11.23;;;10.80;99.90;;;;;;5043111;28;20571;-71
2024/01/03 00:56:43;;;;;;;11.43;11.13;;;10.80;99.90;;;;;;5045296;28;20462;-70
2024/01/03 00:59:10;;;;;;;11.37;11.07;;;10.80;99.90;;;;;;5036117;28;20464;-71
2024/01/03 01:01:37;;;;;;;11.50;11.20;;;10.80;99.90;;;;;;5039108;28;20457;-70
2024/01/03 01:04:06;;;;;;;11.07;10.77;;;10.70;99.90;;;;;;5042906;28;20459;-70
2024/01/03 01:06:34;;;;;;;10.40;10.20;;;10.70;99.90;;;;;;5038090;28;20546;-71
2024/01/03 01:09:04;;;;;;;10.63;10.43;;;10.60;99.90;;;;;;5037507;28;20568;-71
2024/01/03 01:11:30;;;;;;;10.70;10.50;;;10.60;99.90;;;;;;5037172;28;20483;-71
2024/01/03 01:13:57;;;;;;;10.37;10.17;;;10.60;99.90;;;;;;5041998;28;20459;-71
2024/01/03 01:16:24;;;;;;;10.30;10.10;;;10.60;99.90;;;;;;5036783;28;20460;-70
2024/01/03 01:18:51;;;;;;;10.40;10.20;;;10.60;99.90;;;;;;5031498;28;21009;-71
2024/01/03 01:21:19;;;;;;;10.17;9.97;;;10.70;99.90;;;;;;5040188;28;20463;-71
2024/01/03 01:23:47;;;;;;;9.53;9.33;;;10.70;99.90;;;;;;5036076;28;20467;-70
2024/01/03 01:26:14;;;;;;;9.83;9.63;;;10.70;99.90;;;;;;5043952;28;20452;-69
2024/01/03 01:28:40;;;;;;;10.20;10.00;;;10.60;99.90;;;;;;5047834;28;20448;-70
2024/01/03 01:31:08;;;;;;;10.20;10.00;;;10.60;99.90;;;;;;5041119;28;20986;-70
2024/01/03 01:33:34;;;;;;;10.50;10.30;;;10.60;99.90;;;;;;5043504;28;20491;-70
2024/01/03 01:36:01;;;;;;;10.30;10.10;;;10.60;99.90;;;;;;5036197;28;20465;-70
2024/01/03 01:38:29;;;;;;;9.90;9.70;;;10.70;99.90;;;;;;5044632;28;20978;-69
2024/01/03 01:40:57;;;;;;;10.30;10.10;;;10.70;99.90;;;;;;5049204;28;20445;-71
2024/01/03 01:43:23;;;;;;;9.70;9.50;;;10.60;99.90;;;;;;5045806;28;21038;-69
2024/01/03 01:45:50;;;;;;;9.20;9.00;;;10.50;99.90;;;;;;5047443;28;20816;-70
2024/01/03 01:48:18;;;;;;;9.10;8.90;;;10.40;99.90;;;;;;5041717;28;21313;-70
2024/01/03 01:50:46;;;;;;;11.60;11.30;;;10.40;99.90;;;;;;5041043;28;20501;-69
2024/01/03 01:53:14;;;;;;;10.77;10.47;;;10.40;99.90;;;;;;5047403;28;20487;-70
2024/01/03 01:55:44;;;;;;;10.53;10.23;;;10.20;99.90;;;;;;5048665;28;20460;-69
2024/01/03 01:58:13;;;;;;;10.17;9.97;;;10.10;99.90;;;;;;5044887;28;20847;-68
2024/01/03 02:00:41;;;;;;;10.70;10.40;;;10.10;99.90;;;;;;5048499;28;20460;-70
2024/01/03 02:03:09;;;;;;;10.70;10.40;;;10.20;99.90;;;;;;5036947;28;20469;-68
2024/01/03 02:05:37;;;;;;;10.20;10.00;;;10.20;99.90;;;;;;5041225;28;20457;-69
2024/01/03 02:08:08;;;;;;;9.40;9.20;;;10.30;99.90;;;;;;5036853;28;20864;-70
2024/01/03 02:10:34;;;;;;;8.93;8.73;;;10.30;99.90;;;;;;5048546;28;20599;-71
2024/01/03 02:13:02;;;;;;;9.10;8.90;;;10.20;99.90;;;;;;5042599;28;20532;-71
2024/01/03 02:15:30;;;;;;;9.20;9.00;;;10.20;99.90;;;;;;5046312;28;20514;-71
2024/01/03 02:17:58;;;;;;;9.20;9.00;;;10.30;99.90;;;;;;5039528;28;20457;-73
2024/01/03 02:20:26;;;;;;;9.17;8.97;;;10.30;99.90;;;;;;5042240;28;20471;-72
2024/01/03 02:22:55;;;;;;;9.80;9.60;;;10.30;99.90;;;;;;5030360;28;20574;-73
2024/01/03 02:25:22;;;;;;;9.73;9.53;;;10.30;99.90;;;;;;5048613;28;20452;-72
2024/01/03 02:27:50;;;;;;;10.10;9.90;;;10.30;99.90;;;;;;5043944;28;20547;-72
2024/01/03 02:30:18;;;;;;;9.33;9.13;;;10.30;99.90;;;;;;5044734;28;20918;-72
2024/01/03 02:32:44;;;;;;;9.80;9.60;;;10.20;99.90;;;;;;5041818;28;20523;-73
2024/01/03 02:35:13;;;;;;;10.00;9.80;;;10.20;99.90;;;;;;5033273;28;20459;-73
2024/01/03 02:37:39;;;;;;;9.70;9.50;;;10.30;99.90;;;;;;5037203;28;21033;-72
2024/01/03 02:40:09;;;;;;;10.40;10.20;;;10.20;99.90;;;;;;5047873;28;20480;-72
2024/01/03 02:42:35;;;;;;;10.20;10.00;;;10.30;99.90;;;;;;5042671;28;20444;-71
2024/01/03 02:45:03;;;;;;;9.77;9.57;;;10.40;99.90;;;;;;5047719;28;20467;-73
2024/01/03 02:47:29;;;;;;;9.80;9.60;;;10.40;99.90;;;;;;5036393;28;20464;-73
2024/01/03 02:49:58;;;;;;;9.90;9.70;;;10.40;99.90;;;;;;5040560;28;20858;-73
2024/01/03 02:52:26;;;;;;;10.10;9.90;;;10.40;99.90;;;;;;5042336;28;20518;-73
2024/01/03 02:54:54;;;;;;;9.60;9.40;;;10.40;99.90;;;;;;5036125;28;21455;-73
2024/01/03 02:57:24;;;;;;;10.07;9.87;;;10.40;99.90;;;;;;5034353;28;20607;-71
2024/01/03 02:59:51;;;;;;;10.20;10.00;;;10.50;99.90;;;;;;5042818;28;20767;-72
2024/01/03 03:02:18;;;;;;;9.90;9.70;;;10.40;99.90;;;;;;5047716;28;20452;-73
2024/01/03 03:04:45;;;;;;;9.63;9.43;;;10.30;99.90;;;;;;5041756;28;20830;-72
2024/01/03 03:07:12;;;;;;;10.30;10.10;;;10.30;99.90;;;;;;5037158;28;20473;-71
2024/01/03 03:09:40;;;;;;;9.80;9.60;;;10.30;99.90;;;;;;5043841;28;20458;-72
2024/01/03 03:12:07;;;;;;;10.17;9.97;;;10.30;99.90;;;;;;5047783;28;20476;-72
2024/01/03 03:14:35;;;;;;;10.40;10.20;;;10.40;99.90;;;;;;5042482;28;20478;-71
2024/01/03 03:17:02;;;;;;;10.10;9.90;;;10.50;99.90;;;;;;5036622;28;20990;-72
2024/01/03 03:19:30;;;;;;;11.03;10.73;;;10.40;99.90;;;;;;5035296;28;20853;-73
2024/01/03 03:21:57;;;;;;;10.10;9.90;;;10.40;99.90;;;;;;5047340;28;20450;-69
2024/01/03 03:24:25;;;;;;;10.10;9.90;;;10.40;99.90;;;;;;5043856;28;20472;-70
2024/01/03 03:26:52;;;;;;;10.03;9.83;;;10.30;99.90;;;;;;5044771;28;20546;-68
2024/01/03 03:29:19;;;;;;;9.70;9.50;;;10.30;99.90;;;;;;5034945;28;20492;-69
2024/01/03 03:31:47;;;;;;;9.57;9.37;;;10.20;99.90;;;;;;5041764;28;20474;-69
2024/01/03 03:34:16;;;;;;;9.30;9.10;;;10.20;99.90;;;;;;5041691;28;20495;-69
2024/01/03 03:36:43;;;;;;;9.03;8.83;;;10.10;99.90;;;;;;5038659;28;20483;-69
2024/01/03 03:39:11;;;;;;;9.73;9.53;;;10.10;99.90;;;;;;5046948;28;20484;-68
2024/01/03 03:41:39;;;;;;;9.80;9.60;;;10.20;99.90;;;;;;5039632;28;20803;-70
2024/01/03 03:44:06;;;;;;;9.50;9.30;;;10.30;99.90;;;;;;5047706;28;20842;-70
2024/01/03 03:46:32;;;;;;;9.70;9.50;;;10.30;99.90;;;;;;5034388;28;20454;-72
2024/01/03 03:49:01;;;;;;;9.47;9.27;;;10.30;99.90;;;;;;5042463;28;20452;-72
2024/01/03 03:51:28;;;;;;;9.20;9.00;;;10.30;99.90;;;;;;5035846;28;20468;-71
2024/01/03 03:53:55;;;;;;;8.70;8.60;;;10.30;99.90;;;;;;5041510;28;21021;-72
2024/01/03 03:56:23;;;;;;;8.90;8.70;;;10.30;99.90;;;;;;5045219;28;20810;-70
2024/01/03 03:58:50;;;;;;;9.50;9.30;;;10.20;99.90;;;;;;5038857;28;20505;-70
2024/01/03 04:01:17;;;;;;;9.37;9.17;;;10.30;99.90;;;;;;5045927;28;20452;-72
2024/01/03 04:03:44;;;;;;;9.60;9.40;;;10.30;99.90;;;;;;5035727;28;20463;-71
2024/01/03 04:06:15;;;;;;;9.43;9.23;;;10.30;99.90;;;;;;5038344;28;20473;-71
2024/01/03 04:08:44;;;;;;;9.40;9.20;;;10.30;99.90;;;;;;5034663;28;20469;-72
2024/01/03 04:11:11;;;;;;;10.23;10.03;;;10.40;99.90;;;;;;5034121;28;20457;-72
2024/01/03 04:13:39;;;;;;;10.10;9.90;;;10.50;99.90;;;;;;5038162;28;20480;-73
2024/01/03 04:16:07;;;;;;;9.90;9.70;;;10.40;99.90;;;;;;5038185;28;20492;-71
2024/01/03 04:18:34;;;;;;;9.23;9.03;;;10.50;99.90;;;;;;5040376;28;20496;-72
2024/01/03 04:21:05;;;;;;;9.87;9.67;;;10.50;99.90;;;;;;5042845;28;20480;-72
2024/01/03 04:23:33;;;;;;;11.20;10.90;;;10.40;99.90;;;;;;5029827;28;20483;-71
2024/01/03 04:26:01;;;;;;;11.90;11.50;;;10.30;99.90;;;;;;5045617;28;20463;-69
2024/01/03 04:28:28;;;;;;;12.63;12.23;;;10.10;99.90;;;;;;5046353;28;20499;-71
2024/01/03 04:30:55;;;;;;;12.17;11.77;;;10.00;99.90;;;;;;5031716;28;20984;-71
2024/01/03 04:33:23;;;;;;;12.90;12.50;;;9.90;99.90;;;;;;5038702;28;20488;-70
2024/01/03 04:35:49;;;;;;;13.10;12.70;;;9.80;99.90;;;;;;5036115;28;20467;-71
2024/01/03 04:38:18;;;;;;;15.07;14.43;;;9.80;99.90;;;;;;5037999;28;20460;-73
2024/01/03 04:40:46;;;;;;;15.87;15.17;;;9.70;99.90;;;;;;5041618;28;20489;-71
2024/01/03 04:43:13;;;;;;;15.27;14.67;;;9.50;99.90;;;;;;5041080;28;21456;-72
2024/01/03 04:45:40;;;;;;;14.33;13.83;;;9.30;99.90;;;;;;5035686;28;20453;-71
2024/01/03 04:48:08;;;;;;;13.93;13.43;;;9.20;99.90;;;;;;5043295;28;20573;-74
2024/01/03 04:50:35;;;;;;;15.83;15.13;;;9.20;99.90;;;;;;5032040;28;20476;-72
2024/01/03 04:53:03;;;;;;;16.20;15.60;;;9.20;99.90;;;;;;5041965;28;20480;-72
2024/01/03 04:55:30;;;;;;;14.67;14.17;;;9.00;99.90;;;;;;5034610;28;20813;-73
2024/01/03 04:57:59;;;;;;;14.30;13.90;;;8.80;99.90;;;;;;5040542;28;20445;-73
2024/01/03 05:00:26;;;;;;;15.23;14.73;;;8.80;99.90;;;;;;5041273;28;20459;-72
2024/01/03 05:02:53;;;;;;;16.60;16.00;;;8.80;99.90;;;;;;5027253;28;20457;-71
2024/01/03 05:05:20;;;;;;;16.57;15.97;;;8.90;99.90;;;;;;5038772;28;20467;-74
2024/01/03 05:07:47;;;;;;;16.13;15.63;;;8.90;99.90;;;;;;5042112;28;20465;-77
2024/01/03 05:10:14;;;;;;;16.27;15.77;;;8.90;99.90;;;;;;5038368;28;20456;-73
2024/01/03 05:12:40;;;;;;;16.07;15.57;;;8.90;99.90;;;;;;5040897;28;21027;-73
2024/01/03 05:15:11;;;;;;;16.67;16.10;;;8.90;99.90;;;;;;5034781;28;20452;-75
2024/01/03 05:17:38;;;;;;;17.70;17.10;;;9.00;99.90;;;;;;5045360;28;20452;-72
2024/01/03 05:20:06;;;;;;;16.67;16.07;;;9.00;99.90;;;;;;5031594;28;20955;-73
2024/01/03 05:22:33;;;;;;;16.83;16.23;;;9.00;99.90;;;;;;5041341;28;20468;-74
2024/01/03 05:25:00;;;;;;;18.60;17.90;;;9.00;99.90;;;;;;5039146;28;20580;-73
2024/01/03 05:27:27;;;;;;;18.63;17.93;;;9.00;99.90;;;;;;5037120;28;21026;-74
2024/01/03 05:29:54;;;;;;;17.97;17.30;;;9.10;99.90;;;;;;5044976;28;20990;-73
2024/01/03 05:32:22;;;;;;;17.70;17.10;;;9.10;99.90;;;;;;5031141;28;21042;-72
2024/01/03 05:34:49;;;;;;;17.90;17.20;;;9.10;99.90;;;;;;5030974;28;20489;-73
2024/01/03 05:37:15;;;;;;;17.67;17.07;;;9.10;99.90;;;;;;5040028;28;20463;-75
2024/01/03 05:39:42;;;;;;;18.00;17.30;;;9.10;99.90;;;;;;5034844;28;20491;-73
2024/01/03 05:42:09;;;;;;;18.60;17.90;;;9.10;99.90;;;;;;5038186;28;20465;-74
2024/01/03 05:44:36;;;;;;;18.17;17.47;;;9.10;99.90;;;;;;5041451;28;20455;-75
2024/01/03 05:47:04;;;;;;;17.43;16.83;;;9.20;99.90;;;;;;5043098;28;20456;-73
2024/01/03 05:49:33;;;;;;;19.53;18.73;;;9.20;99.90;;;;;;5035368;28;20518;-73
2024/01/03 05:52:01;;;;;;;17.37;16.77;;;9.10;99.90;;;;;;5043441;28;20488;-75
2024/01/03 05:54:28;;;;;;;17.33;16.73;;;9.10;99.90;;;;;;5028896;28;20532;-73
2024/01/03 05:56:56;;;;;;;16.77;16.17;;;9.10;99.90;;;;;;5038166;28;20507;-73
2024/01/03 05:59:23;;;;;;;17.93;17.23;;;9.10;99.90;;;;;;5043349;28;20452;-73
2024/01/03 06:01:49;;;;;;;18.73;18.03;;;9.10;99.90;;;;;;5031422;28;20914;-73
2024/01/03 06:04:16;;;;;;;19.10;18.30;;;9.10;99.90;;;;;;5033603;28;20788;-73
2024/01/03 06:06:44;;;;;;;20.80;19.90;;;9.10;99.90;;;;;;5042918;28;20448;-73
2024/01/03 06:09:12;;;;;;;20.77;19.87;;;9.10;99.90;;;;;;5039742;28;20467;-74
2024/01/03 06:11:40;;;;;;;20.97;20.07;;;9.10;99.90;;;;;;5048947;28;20800;-76
2024/01/03 06:14:07;;;;;;;21.90;20.90;;;9.10;99.90;;;;;;5040587;28;20982;-76
2024/01/03 06:16:35;;;;;;;21.80;20.80;;;9.10;99.90;;;;;;5039585;28;20469;-73
2024/01/03 06:19:02;;;;;;;21.53;20.53;;;9.20;99.90;;;;;;5043622;28;20472;-77
2024/01/03 06:21:28;;;;;;;20.97;20.07;;;9.20;99.90;;;;;;5035258;28;20472;-78
2024/01/03 06:23:57;;;;;;;22.10;21.10;;;9.10;99.90;;;;;;5035065;28;20464;-73
2024/01/03 06:26:28;;;;;;;20.83;19.93;;;9.10;99.90;;;;;;5031619;28;20453;-73
2024/01/03 06:28:55;;;;;;;18.87;18.17;;;9.20;99.90;;;;;;5033573;28;20493;-75
2024/01/03 06:31:22;;;;;;;20.00;19.20;;;9.20;99.90;;;;;;5034301;28;20942;-72
2024/01/03 06:33:50;;;;;;;19.17;18.47;;;9.20;99.90;;;;;;5033861;28;20499;-75
2024/01/03 06:36:17;;;;;;;19.50;18.80;;;9.20;99.90;;;;;;5031564;28;20468;-75
2024/01/03 06:38:43;;;;;;;19.70;19.00;;;9.20;99.90;;;;;;5029754;28;20460;-76
2024/01/03 06:41:11;;;;;;;18.60;17.90;;;9.20;99.90;;;;;;5032607;28;20553;-73
2024/01/03 06:43:39;;;;;;;18.60;17.90;;;9.30;99.90;;;;;;5033697;28;20468;-73
2024/01/03 06:46:07;;;;;;;18.00;17.40;;;9.30;99.90;;;;;;5035222;28;20453;-73
2024/01/03 06:48:34;;;;;;;18.20;17.50;;;9.30;99.90;;;;;;5035449;28;20942;-73
2024/01/03 06:51:02;;;;;;;16.73;16.13;;;9.30;99.90;;;;;;5035462;28;20557;-73
2024/01/03 06:53:30;;;;;;;16.40;15.80;;;9.40;99.90;;;;;;5034538;28;20488;-72
2024/01/03 06:55:56;;;;;;;16.60;16.00;;;9.40;99.90;;;;;;5033024;28;20461;-73
2024/01/03 06:58:25;;;;;;;16.17;15.60;;;9.40;99.90;;;;;;5033032;28;20950;-73
2024/01/03 07:00:52;;;;;;;16.40;15.80;;;9.40;99.90;;;;;;5035447;28;20457;-73
2024/01/03 07:03:19;;;;;;;15.93;15.43;;;9.40;99.90;;;;;;5034208;28;20473;-72
2024/01/03 07:05:46;;;;;;;16.27;15.67;;;9.40;99.90;;;;;;5032965;28;21058;-73
2024/01/03 07:08:13;;;;;;;16.77;16.17;;;9.30;99.90;;;;;;5034760;28;20464;-74
2024/01/03 07:10:41;;;;;;;16.23;15.63;;;9.30;99.90;;;;;;5032047;28;20498;-75
2024/01/03 07:13:08;;;;;;;16.97;16.37;;;9.20;99.90;;;;;;5022687;28;20463;-72
2024/01/03 07:15:36;;;;;;;16.50;15.90;;;9.20;99.90;;;;;;5023373;28;20837;-72
2024/01/03 07:18:03;;;;;;;15.67;15.17;;;9.30;99.90;;;;;;5030872;28;20464;-72
2024/01/03 07:20:31;;;;;;;16.00;15.40;;;9.40;99.90;;;;;;5035932;28;21003;-71
2024/01/03 07:22:59;;;;;;;15.80;15.20;;;9.40;99.90;;;;;;5035324;28;20485;-71
2024/01/03 07:25:25;;;;;;;17.07;16.37;;;9.50;99.90;;;;;;5032990;28;20472;-74
2024/01/03 07:27:52;;;;;;;17.23;16.43;;;9.60;99.90;;;;;;5033206;28;20803;-73
2024/01/03 07:30:21;;;;;;;17.70;16.80;;;9.60;99.90;;;;;;5030990;28;20491;-72
2024/01/03 07:32:49;;;;;;;18.13;17.13;;;9.70;99.90;;;;;;5034231;28;21019;-73
2024/01/03 07:35:16;;;;;;;17.70;16.90;;;9.60;99.90;;;;;;5031840;28;20503;-73
2024/01/03 07:37:43;;;;;;;17.93;17.13;;;9.50;99.90;;;;;;5031471;28;21176;-73
2024/01/03 07:40:10;;;;;;;15.70;15.10;;;9.40;99.90;;;;;;5029799;28;20935;-73
2024/01/03 07:42:37;;;;;;;16.00;15.40;;;9.30;99.90;;;;;;5029454;28;20519;-77
2024/01/03 07:45:04;;;;;;;15.97;15.37;;;9.30;99.90;;;;;;5031122;28;20472;-73
2024/01/03 07:47:31;;;;;;;16.10;15.50;;;9.30;99.90;;;;;;5029379;28;20819;-72
2024/01/03 07:49:59;;;;;;;17.43;16.70;;;9.30;99.90;;;;;;5031904;28;20560;-73
2024/01/03 07:52:27;;;;;;;17.80;17.00;;;9.40;99.90;;;;;;5032914;28;20453;-73
2024/01/03 07:54:54;;;;;;;17.30;16.60;;;9.40;99.90;;;;;;5028718;28;20566;-73
2024/01/03 07:57:20;;;;;;;16.90;16.30;;;9.30;99.90;;;;;;5030172;28;20456;-73
2024/01/03 07:59:48;;;;;;;16.53;15.93;;;9.30;99.90;;;;;;5031438;28;20457;-73
2024/01/03 08:02:15;;;;;;;16.73;16.13;;;9.30;99.90;;;;;;5033492;28;20463;-73
2024/01/03 08:04:42;;;;;;;16.47;15.87;;;9.30;99.90;;;;;;5029835;28;20461;-73
2024/01/03 08:07:10;;;;;;;17.00;16.40;;;9.20;99.90;;;;;;5032630;28;20847;-71
2024/01/03 08:09:38;;;;;;;16.07;15.47;;;9.20;99.90;;;;;;5029042;28;20990;-76
2024/01/03 08:12:06;;;;;;;16.37;15.77;;;9.20;99.90;;;;;;5029376;28;20507;-73
2024/01/03 08:14:34;;;;;;;16.47;15.87;;;9.20;99.90;;;;;;5031377;28;21728;-73
2024/01/03 08:17:01;;;;;;;16.10;15.60;;;9.10;99.90;;;;;;5032009;28;20567;-72
2024/01/03 08:19:27;;;;;;;15.67;15.17;;;9.10;99.90;;;;;;5031510;28;20547;-75
2024/01/03 08:21:54;;;;;;;16.40;15.80;;;9.10;99.90;;;;;;5032068;28;20494;-72
2024/01/03 08:24:22;;;;;;;16.30;15.70;;;9.10;99.90;;;;;;5030839;28;20461;-72
2024/01/03 08:26:49;;;;;;;16.10;15.50;;;9.10;99.90;;;;;;5031959;28;20465;-74
2024/01/03 08:29:16;;;;;;;15.70;15.10;;;9.20;99.90;;;;;;5030124;28;20987;-72
2024/01/03 08:31:42;;;;;;;15.43;14.83;;;9.30;99.90;;;;;;5027550;28;20468;-74
2024/01/03 08:34:09;;;;;;;15.97;15.37;;;9.30;99.90;;;;;;5024797;28;20485;-74
2024/01/03 08:39:23;;;;;;;16.40;15.70;;;9.30;99.90;;;;;;5030157;28;20472;-72
2024/01/03 08:41:53;;;;;;;16.87;16.07;;;9.40;99.90;;;;;;5030572;28;20498;-72
2024/01/03 08:44:20;;;;;;;16.33;15.63;;;9.40;99.90;;;;;;5029348;28;20466;-72
2024/01/03 08:46:47;;;;;;;16.50;15.80;;;9.40;99.90;;;;;;5027526;28;20456;-71
2024/01/03 08:49:15;;;;;;;15.87;15.17;;;9.40;99.90;;;;;;5032580;28;20576;-74
2024/01/03 08:51:44;;;;;;;16.03;15.33;;;9.50;99.90;;;;;;5033160;28;20894;-72
2024/01/03 08:54:12;;;;;;;15.60;15.00;;;9.40;99.90;;;;;;5029851;28;20505;-70
2024/01/03 08:56:40;;;;;;;14.67;14.07;;;9.40;99.90;;;;;;5026874;28;20460;-73
2024/01/03 08:59:07;;;;;;;15.00;14.40;;;9.40;99.90;;;;;;5032618;28;20480;-72
2024/01/03 09:01:34;;;;;;;14.73;14.13;;;9.50;99.90;;;;;;5027443;28;21115;-73
2024/01/03 09:04:01;;;;;;;14.30;13.80;;;9.60;99.90;;;;;;5018947;28;20472;-72
2024/01/03 09:06:29;;;;;;;13.60;13.10;;;9.60;99.90;;;;;;5030654;28;20468;-72
2024/01/03 09:08:56;;;;;;;12.80;12.40;;;9.70;99.90;;;;;;5033376;28;22906;-72
2024/01/03 09:11:25;;;;;;;12.60;12.20;;;9.70;99.90;;;;;;5029124;28;20461;-72
2024/01/03 09:13:54;;;;;;;12.63;12.23;;;9.70;99.90;;;;;;5030909;28;20519;-71
2024/01/03 09:16:22;;;;;;;12.00;11.60;;;9.70;99.90;;;;;;5027537;28;20476;-72
2024/01/03 09:18:50;;;;;;;11.57;11.27;;;9.80;99.90;;;;;;5029260;28;20561;-71
2024/01/03 09:21:17;;;;;;;11.60;11.30;;;9.80;99.90;;;;;;5031101;28;20525;-72
2024/01/03 09:23:45;;;;;;;11.03;10.73;;;9.90;99.90;;;;;;5032558;28;21016;-71
2024/01/03 09:26:12;;;;;;;10.70;10.40;;;9.90;99.90;;;;;;5029963;28;20477;-72
2024/01/03 09:28:39;;;;;;;10.63;10.33;;;10.00;99.90;;;;;;5033281;28;20931;-71
2024/01/03 09:31:07;;;;;;;10.67;10.37;;;9.90;99.90;;;;;;5033086;28;20583;-73
2024/01/03 09:33:34;;;;;;;11.10;10.80;;;10.00;99.90;;;;;;5032469;28;20468;-73
2024/01/03 09:36:02;;;;;;;10.30;10.10;;;10.00;99.90;;;;;;5028431;28;20853;-70
2024/01/03 09:38:29;;;;;;;11.17;10.87;;;10.00;99.90;;;;;;5021995;28;20460;-71
2024/01/03 09:40:58;;;;;;;11.80;11.50;;;10.10;99.90;;;;;;5029792;28;20574;-73
2024/01/03 09:43:25;;;;;;;11.60;11.30;;;10.10;99.90;;;;;;5030875;28;20551;-71
2024/01/03 09:45:53;;;;;;;11.80;11.50;;;10.20;99.90;;;;;;5034314;28;20461;-71
2024/01/03 09:48:21;;;;;;;12.40;12.00;;;10.20;99.90;;;;;;5033002;28;20514;-72
2024/01/03 09:50:49;;;;;;;12.60;12.20;;;10.20;99.90;;;;;;5034736;28;20483;-72
2024/01/03 09:53:17;;;;;;;15.40;14.70;;;10.20;99.90;;;;;;5035502;28;20456;-72
2024/01/03 09:55:45;;;;;;;16.50;15.70;;;10.10;99.90;;;;;;5031474;28;20484;-71
2024/01/03 09:58:12;;;;;;;16.87;15.97;;;9.70;99.90;;;;;;5026616;28;20602;-72
2024/01/03 10:00:39;;;;;;;16.20;15.50;;;9.40;99.90;;;;;;5033998;28;20461;-72
2024/01/03 10:03:08;;;;;;;16.20;15.50;;;9.20;99.90;;;;;;5033630;28;20838;-72
2024/01/03 10:05:36;;;;;;;17.27;16.47;;;9.20;99.90;;;;;;5035506;28;20564;-75
2024/01/03 10:08:15;;;;;;;16.87;16.17;;;9.10;99.90;;;;;;5036336;28;20530;-73
2024/01/03 10:10:44;;;;;;;16.03;15.43;;;9.10;99.90;;;;;;5031154;28;20559;-73
2024/01/03 10:13:15;;;;;;;16.33;15.73;;;9.10;99.90;;;;;;5036544;28;20460;-72
2024/01/03 10:15:44;;;;;;;15.47;14.97;;;9.10;99.90;;;;;;5032295;28;20583;-72
2024/01/03 10:18:13;;;;;;;17.13;16.43;;;9.20;99.90;;;;;;5034962;28;20472;-72
2024/01/03 10:20:42;;;;;;;18.00;17.20;;;9.20;99.90;;;;;;5035594;28;20867;-72
2024/01/03 10:23:10;;;;;;;18.40;17.50;;;9.20;99.90;;;;;;5031961;28;20568;-74
2024/01/03 10:25:38;;;;;;;16.67;16.07;;;9.20;99.90;;;;;;5032057;28;20810;-74
2024/01/03 10:28:07;;;;;;;16.43;15.83;;;9.20;99.90;;;;;;5033127;28;20476;-73
2024/01/03 10:30:34;;;;;;;15.80;15.30;;;9.20;99.90;;;;;;5032924;28;20491;-75
2024/01/03 10:33:01;;;;;;;16.97;16.37;;;9.20;99.90;;;;;;5032976;28;20989;-73
2024/01/03 10:35:30;;;;;;;17.50;16.80;;;9.20;99.90;;;;;;5030989;28;20949;-75
2024/01/03 10:37:59;;;;;;;17.03;16.33;;;9.30;99.90;;;;;;5033606;28;20956;-76
2024/01/03 10:40:28;;;;;;;16.67;16.07;;;9.40;99.90;;;;;;5036918;28;20480;-74
2024/01/03 10:42:55;;;;;;;16.93;16.23;;;9.60;99.90;;;;;;5034868;28;21329;-73
2024/01/03 10:45:22;;;;;;;15.90;15.30;;;9.70;99.90;;;;;;5031687;28;20464;-74
2024/01/03 10:47:50;;;;;;;16.43;15.73;;;9.70;99.90;;;;;;5029153;28;20944;-73
2024/01/03 10:50:17;;;;;;;16.47;15.77;;;9.80;99.90;;;;;;5035053;28;20952;-74
2024/01/03 10:52:45;;;;;;;16.50;15.80;;;9.90;99.90;;;;;;5034590;28;20468;-74
2024/01/03 10:55:18;;;;;;;15.93;15.23;;;10.00;99.90;;;;;;5031859;28;20485;-75
2024/01/03 10:57:55;;;;;;;15.33;14.73;;;10.00;99.90;;;;;;5031863;28;20512;-73
2024/01/03 11:00:33;;;;;;;15.53;14.93;;;10.10;99.90;;;;;;5031177;28;20473;-75
2024/01/03 11:03:10;;;;;;;15.40;14.80;;;10.20;99.90;;;;;;5031179;28;20499;-72
2024/01/03 11:05:47;;;;;;;15.33;14.73;;;10.30;99.90;;;;;;5033020;28;20598;-72
2024/01/03 11:08:18;;;;;;;16.13;15.43;;;10.40;99.90;;;;;;5032934;28;20452;-72
2024/01/03 11:10:50;;;;;;;15.97;15.27;;;10.50;99.90;;;;;;5031136;28;20499;-73
2024/01/03 11:13:26;;;;;;;16.00;15.30;;;10.50;99.90;;;;;;5032043;28;20595;-72
2024/01/03 11:15:53;;;;;;;15.03;14.43;;;10.40;99.90;;;;;;5032649;28;20481;-76
2024/01/03 11:18:53;;;;;;;15.13;14.53;;;10.40;99.90;;;;;;5029282;28;20473;-71
2024/01/03 11:21:40;;;;;;;15.00;14.40;;;10.40;99.90;;;;;;5033578;28;20545;-72
2024/01/03 11:24:46;;;;;;;15.10;14.50;;;10.40;99.90;;;;;;5035658;28;20457;-72
2024/01/03 11:27:24;;;;;;;14.87;14.27;;;10.50;99.90;;;;;;5021086;28;20487;-72
2024/01/03 11:29:53;;;;;;;14.77;14.17;;;10.40;99.90;;;;;;5029464;28;20481;-71
2024/01/03 11:32:29;;;;;;;13.57;13.07;;;10.40;99.90;;;;;;5034599;28;20816;-72
2024/01/03 11:35:00;;;;;;;12.40;12.00;;;10.50;99.90;;;;;;5032910;28;20485;-71
2024/01/03 11:37:38;;;;;;;12.13;11.73;;;10.50;99.90;;;;;;5033178;28;20967;-71
2024/01/03 11:40:08;;;;;;;11.20;10.90;;;10.60;99.90;;;;;;5033689;28;20496;-71
2024/01/03 11:42:39;;;;;;;14.03;13.53;;;10.60;99.90;;;;;;5032791;28;21027;-69
2024/01/03 11:45:11;;;;;;;16.80;16.00;;;10.60;99.90;;;;;;5029028;28;20476;-70
2024/01/03 11:47:40;;;;;;;15.70;15.00;;;10.50;99.90;;;;;;5030643;28;21205;-71
2024/01/03 11:50:09;;;;;;;15.30;14.60;;;10.40;99.90;;;;;;5031862;28;20767;-74
2024/01/03 11:52:37;;;;;;;15.27;14.67;;;10.40;99.90;;;;;;5033987;28;20971;-73
2024/01/03 11:55:10;;;;;;;14.83;14.23;;;10.40;99.90;;;;;;5034549;28;20489;-71
2024/01/03 11:57:43;;;;;;;14.67;14.07;;;10.60;99.90;;;;;;5032123;28;20489;-71
2024/01/03 12:00:12;;;;;;;15.73;15.03;;;10.80;99.90;;;;;;5035657;28;20463;-71
2024/01/03 12:02:48;;;;;;;15.67;14.97;;;11.10;99.90;;;;;;5030950;28;20807;-72
2024/01/03 12:05:15;;;;;;;15.93;15.23;;;11.10;99.90;;;;;;5028881;28;20460;-72
2024/01/03 12:07:43;;;;;;;15.80;15.10;;;10.90;99.90;;;;;;5028905;28;20457;-72
2024/01/03 12:10:11;;;;;;;15.07;14.47;;;10.90;99.90;;;;;;5034167;28;20549;-71
2024/01/03 12:12:39;;;;;;;14.40;13.90;;;10.90;99.90;;;;;;5032528;28;20458;-74
2024/01/03 12:15:08;;;;;;;14.63;14.03;;;11.00;99.90;;;;;;5032762;28;20492;-72
2024/01/03 12:17:35;;;;;;;14.17;13.67;;;11.20;99.90;;;;;;5028836;28;20969;-72
2024/01/03 12:20:11;;;;;;;14.00;13.50;;;11.30;99.90;;;;;;5032712;28;20492;-72
2024/01/03 12:22:38;;;;;;;14.00;13.50;;;11.30;99.90;;;;;;5028493;28;20464;-71
2024/01/03 12:25:05;;;;;;;15.00;14.40;;;11.20;99.90;;;;;;5032367;28;20477;-73
2024/01/03 12:27:33;;;;;;;14.97;14.37;;;11.10;99.90;;;;;;5032753;28;20985;-70
2024/01/03 12:30:16;;;;;;;14.80;14.20;;;11.00;99.90;;;;;;5033043;28;20484;-70
2024/01/03 12:32:44;;;;;;;14.03;13.53;;;10.80;99.90;;;;;;5029269;28;20890;-71
2024/01/03 12:35:12;;;;;;;13.87;13.37;;;10.60;99.90;;;;;;5027597;28;20476;-73
2024/01/03 12:37:43;;;;;;;13.93;13.43;;;10.60;99.90;;;;;;5032987;28;20461;-71
2024/01/03 12:40:13;;;;;;;13.10;12.70;;;10.60;99.90;;;;;;5028205;28;20957;-71
2024/01/03 12:42:41;;;;;;;12.70;12.30;;;10.70;99.90;;;;;;5030974;28;20656;-71
2024/01/03 12:45:09;;;;;;;11.67;11.37;;;10.80;99.90;;;;;;5030493;28;20468;-72